createdAt,value
2018-01-21T00:00:17.555Z,50.77
2018-01-21T00:05:20.366Z,47.70
2018-01-21T00:10:23.645Z,47.57
2018-01-21T00:15:26.512Z,41.27
2018-01-21T00:20:30.092Z,46.77
2018-01-21T00:25:32.876Z,47.17
2018-01-21T00:30:35.814Z,47.10
2018-01-21T00:35:38.562Z,50.43
2018-01-21T00:40:42.680Z,48.97
2018-01-21T00:45:45.395Z,46.83
2018-01-21T00:50:49.148Z,52.13
2018-01-21T00:55:51.905Z,47.37
2018-01-21T01:00:55.257Z,52.00
2018-01-21T01:05:58.080Z,53.40
2018-01-21T01:11:01.578Z,59.80
2018-01-21T01:16:04.482Z,59.10
2018-01-21T01:21:08.506Z,58.00
2018-01-21T01:26:11.958Z,59.97
2018-01-21T01:31:15.285Z,55.00
2018-01-21T01:36:17.964Z,55.90
2018-01-21T01:41:21.374Z,56.33
2018-01-21T01:46:24.280Z,59.47
2018-01-21T01:51:27.711Z,55.57
2018-01-21T01:56:30.497Z,57.47
2018-01-21T02:01:33.583Z,52.43
2018-01-21T02:06:37.326Z,49.23
2018-01-21T02:11:40.645Z,47.90
2018-01-21T02:16:43.282Z,53.07
2018-01-21T02:21:46.526Z,49.37
2018-01-21T02:26:49.969Z,50.40
2018-01-21T02:31:53.526Z,51.47
2018-01-21T02:36:56.261Z,69.83
2018-01-21T02:41:59.814Z,68.77
2018-01-21T02:47:02.618Z,80.20
2018-01-21T02:52:05.823Z,79.53
2018-01-21T02:57:09.229Z,88.13
2018-01-21T03:02:13.583Z,83.60
2018-01-21T03:07:16.290Z,81.20
2018-01-21T03:12:19.105Z,78.63
2018-01-21T03:17:21.791Z,76.90
2018-01-21T03:22:24.622Z,78.87
2018-01-21T03:27:27.395Z,79.83
2018-01-21T03:32:30.232Z,84.67
2018-01-21T03:37:33.053Z,80.43
2018-01-21T03:42:35.900Z,76.43
2018-01-21T03:47:38.733Z,85.07
2018-01-21T03:52:42.231Z,76.30
2018-01-21T03:57:45.108Z,77.47
2018-01-21T04:02:49.601Z,87.27
2018-01-21T04:07:52.294Z,69.07
2018-01-21T04:12:55.064Z,71.60
2018-01-21T04:17:58.589Z,69.27
2018-01-21T04:23:02.095Z,72.87
2018-01-21T04:28:05.534Z,70.90
2018-01-21T04:33:08.450Z,77.13
2018-01-21T04:38:11.158Z,82.93
2018-01-21T04:43:13.934Z,86.67
2018-01-21T04:48:17.457Z,79.97
2018-01-21T04:53:20.242Z,74.63
2018-01-21T04:58:23.653Z,70.77
2018-01-21T05:03:26.605Z,73.90
2018-01-21T05:08:29.244Z,75.47
2018-01-21T05:13:32.637Z,86.37
2018-01-21T05:18:35.302Z,85.40
2018-01-21T05:23:39.739Z,77.57
2018-01-21T05:28:42.469Z,93.93
2018-01-21T05:33:45.852Z,79.30
2018-01-21T05:38:48.590Z,91.07
2018-01-21T05:43:52.076Z,87.33
2018-01-21T05:48:54.738Z,83.80
2018-01-21T05:53:58.135Z,84.60
2018-01-21T05:59:00.891Z,71.27
2018-01-21T06:04:04.289Z,79.13
2018-01-21T06:09:07.784Z,66.60
2018-01-21T06:14:11.249Z,78.37
2018-01-21T06:19:14.047Z,79.00
2018-01-21T06:24:17.781Z,71.40
2018-01-21T06:29:20.506Z,71.27
2018-01-21T06:34:23.813Z,87.87
2018-01-21T06:39:26.505Z,73.53
2018-01-21T06:44:30.108Z,80.00
2018-01-21T06:49:32.831Z,75.57
2018-01-21T06:54:36.168Z,84.93
2018-01-21T06:59:38.805Z,75.80
2018-01-21T07:04:42.410Z,71.87
2018-01-21T07:09:46.532Z,73.97
2018-01-21T07:14:49.452Z,86.13
2018-01-21T07:19:56.278Z,74.57
2018-01-21T07:25:00.316Z,69.50
2018-01-21T07:30:03.036Z,79.23
2018-01-21T07:35:06.743Z,72.07
2018-01-21T07:40:09.441Z,78.97
2018-01-21T07:45:13.273Z,74.43
2018-01-21T07:50:15.937Z,75.80
2018-01-21T07:55:20.480Z,79.73
2018-01-21T08:00:24.032Z,80.77
2018-01-21T08:05:27.241Z,81.87
2018-01-21T08:10:29.945Z,94.07
2018-01-21T08:15:33.607Z,81.83
2018-01-21T08:20:37.178Z,98.20
2018-01-21T08:25:41.265Z,96.60
2018-01-21T08:30:43.941Z,103.67
2018-01-21T08:35:52.759Z,101.20
2018-01-21T08:41:01.894Z,93.43
2018-01-21T08:46:06.985Z,86.97
2018-01-21T08:51:09.787Z,87.37
2018-01-21T08:56:13.545Z,89.67
2018-01-21T09:01:17.134Z,77.67
2018-01-21T09:06:20.296Z,85.30
2018-01-21T09:11:22.968Z,95.03
2018-01-21T09:16:25.683Z,90.13
2018-01-21T09:21:28.360Z,84.70
2018-01-21T09:26:32.212Z,99.93
2018-01-21T09:31:34.895Z,88.97
2018-01-21T09:36:38.898Z,80.57
2018-01-21T09:41:41.562Z,137.27
2018-01-21T09:46:44.599Z,74.93
2018-01-21T09:51:47.315Z,84.73
2018-01-21T09:56:50.818Z,74.63
2018-01-21T10:01:53.478Z,80.93
2018-01-21T10:06:56.421Z,67.70
2018-01-21T10:12:02.258Z,64.43
2018-01-21T10:17:05.402Z,63.80
2018-01-21T10:22:08.065Z,62.43
2018-01-21T10:27:11.661Z,60.23
2018-01-21T10:32:14.345Z,56.87
2018-01-21T10:37:17.233Z,58.47
2018-01-21T10:42:19.923Z,55.23
2018-01-21T10:47:23.659Z,60.23
2018-01-21T10:52:26.458Z,57.43
2018-01-21T10:57:29.982Z,64.60
2018-01-21T11:02:32.705Z,58.40
2018-01-21T11:07:36.437Z,54.33
2018-01-21T11:12:39.096Z,51.40
2018-01-21T11:17:43.534Z,56.53
2018-01-21T11:22:47.066Z,54.47
2018-01-21T11:27:50.479Z,53.20
2018-01-21T11:32:53.996Z,54.17
2018-01-21T11:37:58.205Z,55.73
2018-01-21T11:43:01.772Z,54.73
2018-01-21T11:48:04.922Z,58.50
2018-01-21T11:53:07.764Z,50.03
2018-01-21T11:58:12.216Z,52.73
2018-01-21T12:03:15.024Z,50.43
2018-01-21T12:08:18.766Z,48.37
2018-01-21T12:13:21.649Z,53.87
2018-01-21T12:18:24.768Z,56.53
2018-01-21T12:23:27.498Z,54.40
2018-01-21T12:28:30.429Z,48.17
2018-01-21T12:33:33.111Z,50.83
2018-01-21T12:38:36.297Z,46.37
2018-01-21T12:43:39.999Z,44.70
2018-01-21T12:48:43.516Z,47.87
2018-01-21T12:53:46.298Z,48.93
2018-01-21T12:58:50.351Z,44.17
2018-01-21T13:03:53.156Z,41.67
2018-01-21T13:08:55.965Z,45.00
2018-01-21T13:13:58.599Z,39.97
2018-01-21T13:19:01.889Z,44.50
2018-01-21T13:24:04.602Z,44.67
2018-01-21T13:29:07.834Z,45.90
2018-01-21T13:34:10.481Z,47.60
2018-01-21T13:39:13.588Z,43.70
2018-01-21T13:44:16.331Z,48.60
2018-01-21T13:49:19.062Z,50.30
2018-01-21T13:54:22.034Z,52.53
2018-01-21T13:59:25.151Z,52.27
2018-01-21T14:04:27.902Z,45.53
2018-01-21T14:09:31.644Z,45.77
2018-01-21T14:14:34.499Z,41.03
2018-01-21T14:19:38.090Z,48.27
2018-01-21T14:24:40.762Z,39.07
2018-01-21T14:29:44.393Z,44.33
2018-01-21T14:34:47.097Z,46.03
2018-01-21T14:39:50.996Z,46.60
2018-01-21T14:44:54.484Z,40.40
2018-01-21T14:49:57.333Z,45.93
2018-01-21T14:55:00.178Z,43.33
2018-01-21T15:00:03.707Z,40.07
2018-01-21T15:05:06.414Z,42.93
2018-01-21T15:10:09.456Z,42.57
2018-01-21T15:15:12.934Z,41.03
2018-01-21T15:20:16.142Z,42.93
2018-01-21T15:25:19.083Z,45.10
2018-01-21T15:30:22.869Z,51.17
2018-01-21T15:35:26.540Z,55.80
2018-01-21T15:40:30.206Z,55.67
2018-01-21T15:45:32.875Z,52.77
2018-01-21T15:50:36.146Z,53.97
2018-01-21T15:55:39.097Z,61.70
2018-01-21T16:00:42.254Z,60.90
2018-01-21T16:05:45.172Z,55.50
2018-01-21T16:10:48.432Z,61.23
2018-01-21T16:15:51.111Z,55.87
2018-01-21T16:20:55.184Z,58.40
2018-01-21T16:25:58.100Z,52.87
2018-01-21T16:31:01.273Z,61.80
2018-01-21T16:36:03.927Z,60.37
2018-01-21T16:41:06.937Z,45.07
2018-01-21T16:46:09.590Z,45.13
2018-01-21T16:51:13.285Z,53.40
2018-01-21T16:56:16.726Z,51.43
2018-01-21T17:01:19.631Z,42.70
2018-01-21T17:06:28.316Z,42.57
2018-01-21T17:11:31.515Z,43.90
2018-01-21T17:16:34.294Z,49.27
2018-01-21T17:21:37.865Z,49.53
2018-01-21T17:26:40.702Z,36.80
2018-01-21T17:31:44.270Z,39.97
2018-01-21T17:36:47.144Z,44.90
2018-01-21T17:41:50.503Z,42.57
2018-01-21T17:46:53.312Z,42.57
2018-01-21T17:51:56.760Z,44.33
2018-01-21T17:57:00.228Z,45.50
2018-01-21T18:02:03.378Z,38.73
2018-01-21T18:07:06.836Z,43.13
2018-01-21T18:12:10.444Z,34.70
2018-01-21T18:17:13.163Z,70.40
2018-01-21T18:22:16.646Z,65.73
2018-01-21T18:27:20.178Z,67.00
2018-01-21T18:32:23.082Z,78.70
2018-01-21T18:37:25.983Z,81.63
2018-01-21T18:42:28.757Z,84.63
2018-01-21T18:47:32.365Z,82.43
2018-01-21T18:52:35.833Z,77.80
2018-01-21T18:57:38.564Z,85.97
2018-01-21T19:02:42.147Z,73.90
2018-01-21T19:07:44.911Z,74.77
2018-01-21T19:12:47.648Z,51.33
2018-01-21T19:17:50.353Z,57.13
2018-01-21T19:22:53.637Z,49.67
2018-01-21T19:27:57.163Z,55.23
2018-01-21T19:33:00.199Z,52.77
2018-01-21T19:38:02.981Z,54.47
2018-01-21T19:43:12.586Z,63.33
2018-01-21T19:48:15.425Z,60.93
2018-01-21T19:53:18.186Z,55.73
2018-01-21T19:58:20.859Z,49.63
2018-01-21T20:03:24.622Z,47.40
2018-01-21T20:08:27.422Z,48.50
2018-01-21T20:13:30.554Z,55.47
2018-01-21T20:18:33.316Z,117.23
2018-01-21T20:23:36.653Z,54.87
2018-01-21T20:28:39.363Z,51.77
2018-01-21T20:33:42.329Z,55.07
2018-01-21T20:38:45.083Z,60.70
2018-01-21T20:43:48.752Z,60.70
2018-01-21T20:48:51.442Z,46.23
2018-01-21T20:54:01.013Z,56.37
2018-01-21T20:59:03.673Z,57.87
2018-01-21T21:04:07.181Z,53.60
2018-01-21T21:09:09.883Z,49.73
2018-01-21T21:14:13.465Z,56.43
2018-01-21T21:19:16.180Z,47.93
2018-01-21T21:24:19.086Z,44.47
2018-01-21T21:29:21.735Z,45.67
2018-01-21T21:34:24.974Z,43.97
2018-01-21T21:39:27.732Z,34.93
2018-01-21T21:44:30.753Z,39.17
2018-01-21T21:49:33.580Z,31.13
2018-01-21T21:54:37.355Z,38.20
2018-01-21T21:59:40.099Z,35.97
2018-01-21T22:04:43.581Z,36.70
2018-01-21T22:09:46.270Z,35.70
2018-01-21T22:14:49.085Z,38.63
2018-01-21T22:19:51.900Z,33.60
2018-01-21T22:24:55.424Z,34.33
2018-01-21T22:29:58.195Z,34.80
2018-01-21T22:35:01.337Z,35.70
2018-01-21T22:40:04.922Z,33.13
2018-01-21T22:45:08.484Z,39.10
2018-01-21T22:50:11.353Z,34.20
2018-01-21T22:55:25.495Z,37.33
2018-01-21T23:00:33.820Z,37.97
2018-01-21T23:05:36.761Z,39.10
2018-01-21T23:10:40.386Z,38.40
2018-01-21T23:15:43.334Z,35.90
2018-01-21T23:20:58.596Z,38.50
2018-01-21T23:26:01.957Z,40.50
2018-01-21T23:31:04.632Z,38.13
2018-01-21T23:36:09.000Z,38.77
2018-01-21T23:41:11.717Z,43.37
2018-01-21T23:46:15.174Z,49.37
2018-01-21T23:51:17.864Z,45.60
2018-01-21T23:56:21.566Z,45.10
